createdAt,value
2023-01-10T00:00:54.307Z,5.97
2023-01-10T00:03:20.840Z,5.50
2023-01-10T00:05:50.308Z,5.65
2023-01-10T00:08:21.055Z,5.50
2023-01-10T00:10:48.399Z,5.93
2023-01-10T00:13:25.335Z,5.45
2023-01-10T00:15:53.673Z,5.85
2023-01-10T00:18:21.592Z,6.35
2023-01-10T00:20:51.948Z,6.55
2023-01-10T00:23:19.850Z,6.40
2023-01-10T00:25:46.768Z,6.82
2023-01-10T00:28:20.704Z,6.40
2023-01-10T00:30:56.172Z,6.60
2023-01-10T00:33:23.657Z,6.45
2023-01-10T00:35:52.744Z,5.68
2023-01-10T00:38:19.241Z,6.72
2023-01-10T00:40:46.703Z,6.80
2023-01-10T00:43:31.893Z,6.63
2023-01-10T00:45:58.631Z,6.97
2023-01-10T00:48:25.223Z,6.53
2023-01-10T00:50:51.832Z,6.00
2023-01-10T00:53:22.097Z,6.43
2023-01-10T00:55:48.656Z,5.97
2023-01-10T00:58:15.810Z,5.75
2023-01-10T01:00:46.875Z,6.10
2023-01-10T01:03:13.827Z,6.57
2023-01-10T01:05:45.722Z,6.40
2023-01-10T01:08:15.253Z,6.53
2023-01-10T01:10:41.814Z,6.90
2023-01-10T01:13:12.387Z,6.93
2023-01-10T01:15:38.933Z,6.07
2023-01-10T01:18:05.686Z,7.53
2023-01-10T01:20:33.047Z,7.50
2023-01-10T01:23:00.767Z,6.75
2023-01-10T01:25:28.210Z,6.75
2023-01-10T01:27:54.650Z,7.05
2023-01-10T01:30:21.179Z,6.75
2023-01-10T01:32:48.152Z,6.45
2023-01-10T01:35:17.009Z,6.80
2023-01-10T01:37:46.927Z,6.10
2023-01-10T01:40:22.935Z,6.55
2023-01-10T01:42:55.441Z,6.15
2023-01-10T01:45:24.821Z,5.88
2023-01-10T01:47:53.874Z,7.45
2023-01-10T01:50:51.934Z,7.03
2023-01-10T01:53:35.155Z,7.55
2023-01-10T01:56:12.349Z,7.13
2023-01-10T01:58:51.224Z,7.78
2023-01-10T02:01:17.940Z,8.07
2023-01-10T02:03:50.212Z,8.27
2023-01-10T02:06:18.814Z,8.32
2023-01-10T02:08:55.028Z,8.07
2023-01-10T02:11:26.275Z,8.68
2023-01-10T02:13:54.105Z,8.57
2023-01-10T02:16:21.909Z,9.18
2023-01-10T02:18:51.679Z,9.48
2023-01-10T02:21:24.172Z,8.77
2023-01-10T02:24:21.073Z,9.35
2023-01-10T02:27:15.034Z,8.48
2023-01-10T02:29:53.696Z,9.70
2023-01-10T02:32:47.774Z,10.07
2023-01-10T02:35:34.055Z,9.98
2023-01-10T02:38:03.189Z,10.02
2023-01-10T02:40:29.609Z,11.60
2023-01-10T02:43:09.028Z,10.35
2023-01-10T02:45:58.229Z,9.60
2023-01-10T02:48:24.758Z,9.63
2023-01-10T02:51:01.654Z,7.47
2023-01-10T02:53:37.918Z,6.97
2023-01-10T02:56:16.510Z,6.38
2023-01-10T02:59:11.459Z,6.43
2023-01-10T03:01:56.771Z,7.18
2023-01-10T03:04:41.876Z,7.38
2023-01-10T03:07:15.107Z,6.97
2023-01-10T03:09:54.768Z,7.40
2023-01-10T03:12:31.631Z,7.85
2023-01-10T03:15:00.638Z,7.20
2023-01-10T03:17:30.532Z,7.80
2023-01-10T03:20:01.038Z,6.82
2023-01-10T03:22:30.604Z,7.95
2023-01-10T03:25:00.664Z,7.07
2023-01-10T03:27:38.416Z,7.35
2023-01-10T03:30:26.725Z,6.75
2023-01-10T03:32:55.861Z,5.80
2023-01-10T03:35:28.602Z,6.63
2023-01-10T03:38:19.463Z,6.20
2023-01-10T03:41:24.233Z,6.20
2023-01-10T03:44:28.501Z,5.93
2023-01-10T03:47:00.886Z,5.93
2023-01-10T03:49:29.191Z,5.68
2023-01-10T03:51:58.495Z,5.80
2023-01-10T03:54:25.627Z,5.78
2023-01-10T03:56:52.463Z,4.72
2023-01-10T03:59:27.122Z,5.80
2023-01-10T04:01:55.048Z,5.05
2023-01-10T04:04:22.327Z,4.60
2023-01-10T04:06:48.843Z,5.13
2023-01-10T04:09:15.328Z,4.15
2023-01-10T04:11:41.798Z,4.00
2023-01-10T04:14:08.296Z,3.90
2023-01-10T04:16:34.796Z,3.85
2023-01-10T04:19:01.223Z,3.65
2023-01-10T04:21:27.704Z,3.20
2023-01-10T04:23:54.178Z,3.33
2023-01-10T04:26:20.693Z,2.78
2023-01-10T04:28:47.161Z,3.17
2023-01-10T04:31:13.819Z,3.10
2023-01-10T04:33:41.160Z,3.00
2023-01-10T04:36:07.978Z,3.20
2023-01-10T04:38:34.667Z,3.63
2023-01-10T04:41:01.221Z,3.13
2023-01-10T04:43:27.929Z,3.05
2023-01-10T04:45:54.402Z,2.95
2023-01-10T04:48:21.134Z,3.00
2023-01-10T04:50:51.333Z,3.08
2023-01-10T04:53:18.198Z,3.47
2023-01-10T04:55:45.014Z,3.53
2023-01-10T04:58:11.661Z,3.05
2023-01-10T05:00:38.679Z,3.63
2023-01-10T05:03:05.453Z,4.05
2023-01-10T05:05:32.095Z,3.92
2023-01-10T05:07:58.761Z,3.80
2023-01-10T05:10:25.488Z,2.45
2023-01-10T05:12:51.929Z,3.53
2023-01-10T05:15:20.988Z,3.53
2023-01-10T05:17:47.441Z,3.97
2023-01-10T05:20:13.939Z,4.13
2023-01-10T05:22:40.508Z,4.28
2023-01-10T05:25:10.452Z,4.85
2023-01-10T05:27:36.906Z,4.68
2023-01-10T05:30:03.550Z,4.88
2023-01-10T05:32:30.091Z,4.75
2023-01-10T05:34:58.981Z,4.85
2023-01-10T05:37:25.432Z,5.50
2023-01-10T05:39:51.937Z,4.82
2023-01-10T05:42:19.143Z,5.35
2023-01-10T05:44:45.620Z,5.28
2023-01-10T05:47:12.123Z,5.15
2023-01-10T05:49:40.639Z,6.03
2023-01-10T05:52:07.197Z,5.28
2023-01-10T05:54:33.750Z,5.38
2023-01-10T05:57:00.389Z,5.30
2023-01-10T05:59:28.596Z,5.32
2023-01-10T06:01:55.464Z,6.00
2023-01-10T06:04:21.934Z,5.70
2023-01-10T06:06:48.578Z,6.28
2023-01-10T06:09:15.056Z,6.00
2023-01-10T06:11:42.849Z,5.80
2023-01-10T06:14:09.545Z,5.97
2023-01-10T06:16:36.206Z,5.93
2023-01-10T06:19:02.671Z,6.35
2023-01-10T06:21:29.225Z,6.18
2023-01-10T06:23:55.753Z,6.22
2023-01-10T06:26:22.195Z,5.45
2023-01-10T06:28:48.674Z,6.40
2023-01-10T06:31:15.292Z,6.45
2023-01-10T06:33:43.925Z,5.97
2023-01-10T06:36:11.218Z,6.70
2023-01-10T06:38:38.259Z,7.22
2023-01-10T06:41:12.870Z,6.25
2023-01-10T06:43:46.912Z,5.97
2023-01-10T06:46:17.295Z,6.60
2023-01-10T06:48:45.589Z,7.03
2023-01-10T06:51:14.331Z,7.18
2023-01-10T06:53:41.343Z,6.57
2023-01-10T06:56:09.706Z,7.55
2023-01-10T06:58:38.683Z,7.75
2023-01-10T07:01:14.106Z,8.27
2023-01-10T07:03:40.880Z,7.95
2023-01-10T07:06:10.954Z,9.38
2023-01-10T07:08:42.723Z,9.50
2023-01-10T07:11:12.347Z,10.13
2023-01-10T07:13:39.100Z,8.98
2023-01-10T07:16:08.082Z,9.60
2023-01-10T07:18:35.673Z,9.15
2023-01-10T07:21:02.190Z,9.38
2023-01-10T07:23:30.537Z,9.00
2023-01-10T07:26:04.367Z,8.93
2023-01-10T07:28:31.296Z,8.13
2023-01-10T07:31:02.992Z,8.20
2023-01-10T07:33:30.265Z,8.20
2023-01-10T07:35:57.333Z,8.60
2023-01-10T07:38:23.943Z,8.77
2023-01-10T07:40:50.454Z,8.43
2023-01-10T07:43:19.729Z,9.00
2023-01-10T07:45:46.257Z,8.40
2023-01-10T07:48:12.790Z,8.52
2023-01-10T07:50:39.369Z,9.07
2023-01-10T07:53:07.784Z,8.45
2023-01-10T07:55:38.907Z,8.45
2023-01-10T07:58:09.456Z,8.73
2023-01-10T08:00:36.123Z,8.77
2023-01-10T08:03:02.860Z,7.97
2023-01-10T08:05:29.446Z,7.40
2023-01-10T08:07:59.884Z,7.80
2023-01-10T08:10:27.358Z,8.45
2023-01-10T08:12:53.883Z,8.20
2023-01-10T08:15:20.517Z,8.27
2023-01-10T08:17:47.059Z,6.63
2023-01-10T08:20:13.767Z,7.50
2023-01-10T08:22:40.249Z,7.80
2023-01-10T08:25:08.347Z,7.00
2023-01-10T08:27:34.992Z,7.55
2023-01-10T08:30:01.541Z,7.00
2023-01-10T08:32:28.066Z,6.28
2023-01-10T08:34:54.604Z,6.30
2023-01-10T08:37:21.071Z,5.85
2023-01-10T08:39:47.516Z,5.65
2023-01-10T08:42:14.181Z,5.72
2023-01-10T08:44:41.887Z,5.97
2023-01-10T08:47:08.574Z,5.90
2023-01-10T08:49:35.078Z,6.07
2023-01-10T08:52:06.374Z,5.47
2023-01-10T08:54:33.216Z,5.18
2023-01-10T08:56:59.714Z,5.47
2023-01-10T08:59:26.192Z,4.90
2023-01-10T09:01:52.763Z,5.43
2023-01-10T09:04:19.249Z,5.60
2023-01-10T09:06:45.692Z,5.90
2023-01-10T09:09:12.170Z,6.70
2023-01-10T09:11:40.567Z,7.90
2023-01-10T09:14:08.280Z,7.00
2023-01-10T09:16:34.771Z,5.20
2023-01-10T09:19:01.295Z,5.85
2023-01-10T09:21:28.784Z,6.57
2023-01-10T09:23:55.449Z,6.18
2023-01-10T09:26:21.964Z,5.78
2023-01-10T09:28:49.225Z,5.78
2023-01-10T09:31:16.068Z,5.93
2023-01-10T09:33:47.045Z,5.70
2023-01-10T09:36:15.463Z,6.10
2023-01-10T09:38:42.293Z,5.35
2023-01-10T09:41:25.077Z,6.07
2023-01-10T09:44:21.463Z,7.60
2023-01-10T09:47:08.479Z,6.10
2023-01-10T09:49:53.272Z,6.82
2023-01-10T09:52:25.032Z,5.88
2023-01-10T09:54:55.449Z,7.25
2023-01-10T09:57:23.401Z,5.40
2023-01-10T09:59:51.810Z,6.07
2023-01-10T10:02:18.234Z,4.80
2023-01-10T10:04:53.881Z,6.93
2023-01-10T10:07:20.424Z,6.95
2023-01-10T10:09:46.907Z,5.32
2023-01-10T10:12:37.623Z,5.65
2023-01-10T10:15:10.233Z,5.32
2023-01-10T10:17:59.429Z,5.45
2023-01-10T10:21:07.200Z,4.85
2023-01-10T10:23:59.413Z,5.07
2023-01-10T10:26:43.377Z,5.20
2023-01-10T10:29:31.140Z,4.70
2023-01-10T10:32:20.061Z,4.53
2023-01-10T10:34:56.914Z,4.95
2023-01-10T10:37:36.280Z,5.72
2023-01-10T10:40:07.764Z,4.85
2023-01-10T10:42:38.771Z,4.60
2023-01-10T10:45:16.890Z,5.27
2023-01-10T10:47:50.145Z,6.25
2023-01-10T10:50:30.650Z,6.30
2023-01-10T10:52:59.728Z,5.18
2023-01-10T10:55:31.469Z,4.78
2023-01-10T10:58:00.724Z,4.35
2023-01-10T11:00:29.425Z,4.18
2023-01-10T11:03:18.748Z,4.25
2023-01-10T11:05:47.008Z,4.15
2023-01-10T11:08:17.200Z,4.47
2023-01-10T11:10:48.251Z,4.60
2023-01-10T11:13:27.534Z,4.70
2023-01-10T11:15:56.177Z,5.00
2023-01-10T11:18:27.733Z,4.53
2023-01-10T11:21:01.878Z,5.53
2023-01-10T11:23:40.542Z,7.13
2023-01-10T11:26:11.384Z,6.75
2023-01-10T11:28:38.300Z,8.05
2023-01-10T11:31:04.951Z,7.50
2023-01-10T11:33:40.048Z,5.60
2023-01-10T11:36:10.252Z,5.13
2023-01-10T11:38:36.939Z,5.05
2023-01-10T11:41:06.350Z,5.30
2023-01-10T11:43:39.992Z,5.50
2023-01-10T11:46:17.285Z,4.82
2023-01-10T11:49:08.499Z,5.05
2023-01-10T11:51:45.886Z,4.70
2023-01-10T11:54:23.135Z,5.25
2023-01-10T11:56:57.477Z,4.72
2023-01-10T11:59:25.139Z,5.45
2023-01-10T12:02:10.985Z,5.10
2023-01-10T12:04:42.775Z,5.63
2023-01-10T12:07:12.098Z,5.00
2023-01-10T12:09:40.653Z,4.68
2023-01-10T12:12:10.221Z,5.18
2023-01-10T12:14:39.529Z,5.53
2023-01-10T12:17:06.241Z,5.22
2023-01-10T12:19:32.955Z,5.28
2023-01-10T12:22:06.240Z,4.82
2023-01-10T12:24:36.260Z,5.15
2023-01-10T12:27:05.080Z,4.68
2023-01-10T12:29:39.248Z,5.53
2023-01-10T12:32:30.778Z,5.60
2023-01-10T12:35:03.863Z,5.22
2023-01-10T12:37:40.330Z,4.93
2023-01-10T12:40:16.143Z,5.30
2023-01-10T12:43:19.667Z,5.68
2023-01-10T12:45:53.403Z,6.22
2023-01-10T12:48:46.310Z,6.25
2023-01-10T12:51:18.611Z,5.55
2023-01-10T12:53:53.146Z,5.70
2023-01-10T12:56:20.273Z,6.45
2023-01-10T12:58:52.590Z,6.93
2023-01-10T13:01:27.309Z,7.18
2023-01-10T13:03:57.811Z,9.52
2023-01-10T13:06:36.042Z,6.32
2023-01-10T13:09:08.492Z,6.20
2023-01-10T13:12:01.674Z,6.82
2023-01-10T13:15:00.629Z,5.95
2023-01-10T13:17:33.266Z,6.35
2023-01-10T13:20:18.328Z,6.60
2023-01-10T13:22:51.432Z,5.72
2023-01-10T13:25:38.112Z,5.07
2023-01-10T13:28:15.329Z,5.10
2023-01-10T13:30:42.162Z,4.60
2023-01-10T13:33:22.804Z,4.40
2023-01-10T13:35:51.550Z,4.55
2023-01-10T13:38:52.873Z,5.32
2023-01-10T13:41:38.830Z,4.90
2023-01-10T13:44:09.431Z,5.07
2023-01-10T13:46:42.088Z,5.47
2023-01-10T13:49:11.596Z,5.70
2023-01-10T13:51:39.519Z,7.10
2023-01-10T13:54:18.346Z,6.20
2023-01-10T13:56:45.270Z,5.93
2023-01-10T14:00:04.257Z,5.03
2023-01-10T14:02:33.911Z,4.80
2023-01-10T14:05:03.048Z,4.82
2023-01-10T14:07:53.893Z,6.05
2023-01-10T14:13:27.583Z,5.45
2023-01-10T14:15:54.200Z,6.65
2023-01-10T14:18:24.305Z,5.78
2023-01-10T14:21:08.695Z,5.65
2023-01-10T14:23:50.023Z,6.95
2023-01-10T14:26:32.695Z,4.80
2023-01-10T14:32:57.818Z,5.50
2023-01-10T15:34:33.114Z,10.82
2023-01-10T15:37:01.941Z,5.80
2023-01-10T15:39:35.611Z,6.60
2023-01-10T15:42:08.494Z,6.50
2023-01-10T15:44:40.829Z,6.57
2023-01-10T15:47:36.968Z,5.13
2023-01-10T15:50:17.952Z,5.47
2023-01-10T15:53:06.652Z,7.40
2023-01-10T15:55:48.368Z,4.88
2023-01-10T15:58:20.030Z,4.22
2023-01-10T16:00:49.176Z,4.65
2023-01-10T16:03:22.395Z,5.30
2023-01-10T16:05:54.906Z,5.35
2023-01-10T16:08:32.621Z,4.43
2023-01-10T16:11:01.389Z,4.10
2023-01-10T16:13:28.354Z,4.93
2023-01-10T16:15:56.399Z,4.72
2023-01-10T16:18:23.449Z,5.45
2023-01-10T16:20:51.879Z,4.22
2023-01-10T16:23:22.944Z,7.13
2023-01-10T16:25:52.653Z,7.97
2023-01-10T16:28:20.796Z,13.32
2023-01-10T16:30:50.691Z,7.10
2023-01-10T16:33:22.754Z,8.10
2023-01-10T16:35:51.803Z,6.93
2023-01-10T16:38:18.961Z,4.80
2023-01-10T16:40:52.459Z,5.72
2023-01-10T16:43:19.372Z,4.53
2023-01-10T16:45:46.915Z,5.15
2023-01-10T16:48:14.853Z,4.18
2023-01-10T16:50:42.319Z,4.15
2023-01-10T16:53:13.734Z,3.95
2023-01-10T16:55:46.484Z,3.47
2023-01-10T16:58:14.200Z,4.40
2023-01-10T17:00:42.646Z,4.30
2023-01-10T17:03:13.782Z,3.75
2023-01-10T17:05:40.537Z,3.87
2023-01-10T17:08:15.481Z,4.38
2023-01-10T17:10:42.234Z,3.95
2023-01-10T17:13:10.765Z,4.93
2023-01-10T17:15:37.330Z,5.40
2023-01-10T17:18:04.515Z,4.82
2023-01-10T17:20:31.000Z,5.00
2023-01-10T17:22:57.796Z,6.20
2023-01-10T17:25:24.658Z,5.00
2023-01-10T17:27:51.207Z,5.70
2023-01-10T17:30:17.787Z,4.15
2023-01-10T17:32:44.306Z,4.65
2023-01-10T17:35:10.780Z,4.78
2023-01-10T17:37:37.327Z,5.07
2023-01-10T17:40:05.116Z,4.15
2023-01-10T17:42:31.638Z,3.63
2023-01-10T17:44:58.084Z,3.78
2023-01-10T17:47:24.629Z,3.95
2023-01-10T17:49:51.289Z,4.10
2023-01-10T17:52:18.377Z,4.53
2023-01-10T17:54:44.892Z,3.72
2023-01-10T17:57:12.093Z,4.47
2023-01-10T17:59:38.669Z,4.20
2023-01-10T18:02:05.332Z,4.05
2023-01-10T18:04:31.927Z,4.03
2023-01-10T18:06:58.403Z,3.72
2023-01-10T18:09:25.086Z,4.40
2023-01-10T18:11:51.546Z,3.95
2023-01-10T18:14:36.021Z,3.85
2023-01-10T18:17:08.275Z,3.80
2023-01-10T18:19:35.125Z,4.40
2023-01-10T18:22:23.396Z,3.92
2023-01-10T18:24:53.736Z,3.55
2023-01-10T18:27:21.743Z,3.90
2023-01-10T18:29:52.780Z,3.72
2023-01-10T18:32:21.095Z,4.17
2023-01-10T18:34:47.778Z,3.63
2023-01-10T18:37:15.417Z,3.72
2023-01-10T18:39:43.488Z,4.63
2023-01-10T18:42:13.747Z,3.85
2023-01-10T18:44:41.216Z,3.60
2023-01-10T18:47:08.483Z,4.22
2023-01-10T18:49:35.001Z,3.95
2023-01-10T18:52:01.469Z,4.47
2023-01-10T18:54:28.140Z,4.53
2023-01-10T18:56:57.951Z,4.63
2023-01-10T18:59:24.443Z,5.25
2023-01-10T19:01:51.035Z,4.03
2023-01-10T19:04:18.689Z,4.45
2023-01-10T19:06:45.584Z,4.55
2023-01-10T19:09:12.088Z,4.53
2023-01-10T19:11:38.563Z,5.13
2023-01-10T19:14:05.046Z,4.80
2023-01-10T19:16:34.154Z,4.85
2023-01-10T19:19:09.080Z,5.00
2023-01-10T19:21:38.866Z,4.90
2023-01-10T19:24:08.111Z,4.72
2023-01-10T19:26:35.139Z,5.13
2023-01-10T19:29:14.535Z,4.30
2023-01-10T19:31:42.406Z,5.07
2023-01-10T19:34:12.181Z,4.93
2023-01-10T19:36:41.315Z,4.38
2023-01-10T19:39:09.689Z,5.38
2023-01-10T19:41:37.535Z,4.30
2023-01-10T19:44:11.892Z,5.18
2023-01-10T19:46:40.142Z,4.57
2023-01-10T19:49:08.218Z,4.93
2023-01-10T19:51:36.665Z,4.65
2023-01-10T19:54:04.194Z,5.35
2023-01-10T19:56:31.599Z,4.95
2023-01-10T19:58:58.301Z,4.72
2023-01-10T20:01:27.660Z,5.53
2023-01-10T20:03:57.799Z,4.53
2023-01-10T20:06:26.720Z,4.78
2023-01-10T20:08:54.250Z,5.15
2023-01-10T20:11:22.843Z,4.82
2023-01-10T20:13:50.413Z,4.90
2023-01-10T20:16:19.524Z,3.92
2023-01-10T20:18:46.991Z,5.40
2023-01-10T20:21:16.685Z,4.45
2023-01-10T20:23:44.319Z,4.78
2023-01-10T20:26:14.480Z,5.03
2023-01-10T20:28:42.273Z,4.60
2023-01-10T20:31:12.412Z,4.28
2023-01-10T20:33:39.047Z,4.05
2023-01-10T20:36:08.084Z,4.90
2023-01-10T20:38:36.276Z,4.22
2023-01-10T20:41:08.544Z,4.05
2023-01-10T20:43:36.129Z,4.03
2023-01-10T20:46:08.588Z,3.63
2023-01-10T20:48:35.248Z,3.40
2023-01-10T20:51:04.986Z,4.20
2023-01-10T20:53:32.212Z,3.70
2023-01-10T20:56:10.532Z,3.13
2023-01-10T20:58:37.185Z,3.63
2023-01-10T21:01:04.145Z,3.42
2023-01-10T21:03:30.604Z,2.67
2023-01-10T21:05:58.714Z,3.08
2023-01-10T21:08:25.855Z,2.72
2023-01-10T21:10:52.530Z,2.45
2023-01-10T21:13:19.050Z,2.65
2023-01-10T21:15:49.046Z,2.25
2023-01-10T21:18:16.092Z,2.80
2023-01-10T21:20:44.633Z,3.00
2023-01-10T21:23:12.696Z,2.45
2023-01-10T21:25:39.421Z,2.42
2023-01-10T21:28:09.796Z,2.90
2023-01-10T21:30:37.427Z,2.78
2023-01-10T21:33:04.488Z,2.95
2023-01-10T21:35:31.298Z,2.92
2023-01-10T21:37:57.903Z,2.63
2023-01-10T21:40:25.401Z,2.97
2023-01-10T21:42:52.615Z,3.50
2023-01-10T21:45:23.069Z,3.28
2023-01-10T21:47:50.287Z,2.92
2023-01-10T21:50:19.626Z,3.35
2023-01-10T21:52:47.927Z,3.50
2023-01-10T21:55:16.276Z,3.30
2023-01-10T21:57:42.882Z,3.15
2023-01-10T22:00:10.008Z,2.75
2023-01-10T22:02:38.200Z,3.03
2023-01-10T22:05:05.015Z,3.40
2023-01-10T22:07:31.623Z,3.20
2023-01-10T22:09:58.207Z,3.35
2023-01-10T22:12:25.485Z,2.90
2023-01-10T22:14:53.406Z,2.80
2023-01-10T22:17:19.949Z,2.90
2023-01-10T22:19:46.512Z,3.30
2023-01-10T22:22:13.897Z,2.92
2023-01-10T22:24:43.069Z,2.78
2023-01-10T22:27:10.805Z,3.08
2023-01-10T22:29:37.285Z,2.88
2023-01-10T22:32:03.970Z,2.88
2023-01-10T22:34:30.468Z,3.42
2023-01-10T22:36:56.929Z,2.80
2023-01-10T22:39:23.679Z,2.95
2023-01-10T22:41:50.230Z,2.42
2023-01-10T22:44:22.569Z,2.63
2023-01-10T22:46:51.483Z,2.92
2023-01-10T22:49:18.041Z,2.85
2023-01-10T22:51:45.036Z,2.60
2023-01-10T22:54:15.888Z,2.28
2023-01-10T22:56:43.815Z,2.65
2023-01-10T22:59:10.365Z,2.45
2023-01-10T23:01:37.166Z,2.40
2023-01-10T23:04:04.071Z,2.53
2023-01-10T23:06:30.664Z,2.67
2023-01-10T23:08:57.203Z,2.40
2023-01-10T23:11:23.869Z,2.38
2023-01-10T23:13:50.744Z,2.35
2023-01-10T23:16:21.158Z,2.80
2023-01-10T23:18:50.903Z,2.40
2023-01-10T23:21:17.722Z,2.50
2023-01-10T23:23:44.243Z,2.55
2023-01-10T23:26:12.960Z,2.38
2023-01-10T23:28:46.804Z,2.30
2023-01-10T23:31:20.055Z,2.10
2023-01-10T23:33:47.599Z,2.15
2023-01-10T23:36:15.078Z,2.25
2023-01-10T23:38:41.663Z,2.00
2023-01-10T23:41:08.382Z,1.95
2023-01-10T23:43:35.279Z,2.13
2023-01-10T23:46:02.332Z,1.77
2023-01-10T23:48:29.788Z,1.77
2023-01-10T23:50:57.108Z,1.92
2023-01-10T23:53:23.623Z,1.85
2023-01-10T23:55:50.819Z,1.30
2023-01-10T23:58:17.488Z,1.88
